SIA325 EDDF-WSSS
Flight info
| Callsign | SIA325 |
|---|---|
| Flight time | N/A |
| Altitude | 31000 |
| Route | SULUS6F SULUS Z650 VEMUT/N0489F330 DCT NELPA DCT PEPIK DCT AMRAX DCT NARKA DCT RULES/N0487F350 DCT ELROM DCT MOBRA DCT DENAK DCT DINRO DCT UDROS DCT ABSAX DCT REBLO P130 MAMED/N0492F370 B449 RANAH L750 ZB G202 RK P628 IBANI L510 GURVI T1 BBS L759 LAMBU/N0493F390 L759 PUT B579 VPL Y503 RINBA Y507 MAKNA Y511 TOPOR A464 ARAMA LELIB3B |
| Aircraft | A388/J-SADE2E3FGHIJ3J4J5M1RWXY/LB1D1 |
Departure
| Time | N/A |
|---|---|
| Airport | Frankfurt Main Airport (EDDF) |
Arrival
| Time | 2026-05-07 16:35 |
|---|---|
| Airport | Singapore Changi Airport (WSSS) |
| Time | Latitude | Longitude | Altitude | Speed | Heading |
|---|---|---|---|---|---|
| 2026-05-07 15:58 | 3.02971 | 101.59719 | 38888 ft | 493 kts | 154° |
| 2026-05-07 15:59 | 2.99858 | 101.61155 | 38886 ft | 493 kts | 154° |
| 2026-05-07 15:59 | 2.93682 | 101.64005 | 38900 ft | 491 kts | 153° |
| 2026-05-07 16:00 | 2.87480 | 101.66867 | 38889 ft | 491 kts | 153° |
| 2026-05-07 16:00 | 2.81288 | 101.69723 | 38877 ft | 490 kts | 154° |
| 2026-05-07 16:01 | 2.75101 | 101.72576 | 38863 ft | 489 kts | 154° |
| 2026-05-07 16:01 | 2.68936 | 101.75461 | 38856 ft | 489 kts | 153° |
| 2026-05-07 16:02 | 2.62840 | 101.78455 | 38855 ft | 488 kts | 153° |
| 2026-05-07 16:02 | 2.56875 | 101.81683 | 38862 ft | 486 kts | 144° |
| 2026-05-07 16:03 | 2.51701 | 101.86001 | 38867 ft | 484 kts | 133° |
| 2026-05-07 16:03 | 2.47479 | 101.91217 | 38869 ft | 483 kts | 126° |
| 2026-05-07 16:04 | 2.43437 | 101.96584 | 38870 ft | 482 kts | 126° |
| 2026-05-07 16:04 | 2.39422 | 102.01903 | 38868 ft | 482 kts | 126° |
| 2026-05-07 16:05 | 2.35383 | 102.07261 | 38869 ft | 482 kts | 126° |
| 2026-05-07 16:05 | 2.31348 | 102.12617 | 38866 ft | 482 kts | 126° |
| 2026-05-07 16:06 | 2.27310 | 102.17977 | 38767 ft | 481 kts | 126° |
| 2026-05-07 16:06 | 2.25305 | 102.20638 | 38529 ft | 477 kts | 126° |
| 2026-05-07 16:06 | 2.23311 | 102.23284 | 38233 ft | 476 kts | 126° |
| 2026-05-07 16:06 | 2.21316 | 102.25932 | 37947 ft | 478 kts | 126° |
| 2026-05-07 16:07 | 2.19325 | 102.28573 | 37488 ft | 477 kts | 126° |
| 2026-05-07 16:07 | 2.17324 | 102.31229 | 36799 ft | 477 kts | 126° |
| 2026-05-07 16:07 | 2.15323 | 102.33884 | 35882 ft | 478 kts | 126° |
| 2026-05-07 16:07 | 2.13318 | 102.36544 | 34819 ft | 480 kts | 126° |
| 2026-05-07 16:08 | 2.11305 | 102.39215 | 33729 ft | 482 kts | 126° |
| 2026-05-07 16:08 | 2.09289 | 102.41889 | 32479 ft | 483 kts | 126° |
| 2026-05-07 16:08 | 2.07261 | 102.44580 | 31386 ft | 483 kts | 126° |
| 2026-05-07 16:08 | 2.05247 | 102.47252 | 30555 ft | 477 kts | 126° |
| 2026-05-07 16:09 | 2.03264 | 102.49882 | 29722 ft | 471 kts | 126° |
| 2026-05-07 16:09 | 2.01310 | 102.52473 | 28847 ft | 464 kts | 126° |
| 2026-05-07 16:09 | 1.99382 | 102.55032 | 27996 ft | 457 kts | 126° |
| 2026-05-07 16:09 | 1.97481 | 102.57555 | 27166 ft | 450 kts | 126° |
| 2026-05-07 16:10 | 1.95609 | 102.60041 | 26350 ft | 444 kts | 126° |
| 2026-05-07 16:10 | 1.93763 | 102.62492 | 25558 ft | 438 kts | 126° |
| 2026-05-07 16:10 | 1.91943 | 102.64909 | 24891 ft | 433 kts | 125° |
| 2026-05-07 16:10 | 1.90138 | 102.67305 | 24313 ft | 429 kts | 125° |
| 2026-05-07 16:11 | 1.88361 | 102.69663 | 24006 ft | 419 kts | 125° |
| 2026-05-07 16:11 | 1.86652 | 102.71929 | 23899 ft | 410 kts | 125° |
| 2026-05-07 16:11 | 1.84931 | 102.74214 | 23888 ft | 413 kts | 125° |
| 2026-05-07 16:11 | 1.83181 | 102.76538 | 23879 ft | 414 kts | 125° |
| 2026-05-07 16:12 | 1.81446 | 102.78843 | 23878 ft | 414 kts | 125° |
| 2026-05-07 16:12 | 1.79736 | 102.81112 | 23879 ft | 414 kts | 125° |
| 2026-05-07 16:12 | 1.78004 | 102.83411 | 23879 ft | 414 kts | 125° |
| 2026-05-07 16:12 | 1.76266 | 102.85717 | 23876 ft | 414 kts | 125° |
| 2026-05-07 16:13 | 1.74536 | 102.88014 | 23878 ft | 414 kts | 124° |
| 2026-05-07 16:13 | 1.72974 | 102.90418 | 23860 ft | 411 kts | 117° |
| 2026-05-07 16:13 | 1.71638 | 102.92941 | 23417 ft | 411 kts | 116° |
| 2026-05-07 16:13 | 1.70297 | 102.95483 | 22514 ft | 416 kts | 116° |
| 2026-05-07 16:14 | 1.68930 | 102.98059 | 21526 ft | 422 kts | 116° |
| 2026-05-07 16:14 | 1.67552 | 103.00645 | 20806 ft | 419 kts | 116° |
| 2026-05-07 16:14 | 1.66189 | 103.03198 | 20163 ft | 414 kts | 116° |
| 2026-05-07 16:14 | 1.64842 | 103.05722 | 19534 ft | 410 kts | 116° |
| 2026-05-07 16:15 | 1.63505 | 103.08230 | 18882 ft | 407 kts | 116° |
| 2026-05-07 16:15 | 1.62181 | 103.10712 | 18271 ft | 403 kts | 116° |
| 2026-05-07 16:15 | 1.60871 | 103.13169 | 17565 ft | 398 kts | 117° |
| 2026-05-07 16:15 | 1.59570 | 103.15606 | 16727 ft | 393 kts | 117° |
| 2026-05-07 16:16 | 1.58297 | 103.17992 | 16070 ft | 384 kts | 117° |
| 2026-05-07 16:16 | 1.57062 | 103.20303 | 15613 ft | 371 kts | 117° |
| 2026-05-07 16:16 | 1.55860 | 103.22553 | 15143 ft | 364 kts | 117° |
| 2026-05-07 16:16 | 1.54678 | 103.24769 | 14932 ft | 359 kts | 117° |
| 2026-05-07 16:17 | 1.53503 | 103.26972 | 14857 ft | 358 kts | 117° |
| 2026-05-07 16:17 | 1.52331 | 103.29168 | 14464 ft | 359 kts | 117° |
| 2026-05-07 16:17 | 1.51143 | 103.31395 | 13400 ft | 367 kts | 117° |
| 2026-05-07 16:17 | 1.49931 | 103.33668 | 12352 ft | 371 kts | 117° |
| 2026-05-07 16:18 | 1.48729 | 103.35918 | 11759 ft | 361 kts | 117° |
| 2026-05-07 16:18 | 1.47569 | 103.38088 | 11508 ft | 348 kts | 117° |
| 2026-05-07 16:18 | 1.46550 | 103.40239 | 11047 ft | 346 kts | 108° |
| 2026-05-07 16:18 | 1.46106 | 103.42586 | 10568 ft | 343 kts | 92° |
| 2026-05-07 16:19 | 1.46296 | 103.44907 | 10339 ft | 327 kts | 81° |
| 2026-05-07 16:19 | 1.46630 | 103.47091 | 10161 ft | 309 kts | 82° |
| 2026-05-07 16:19 | 1.46919 | 103.49160 | 9984 ft | 296 kts | 83° |
| 2026-05-07 16:19 | 1.47195 | 103.51189 | 9871 ft | 294 kts | 83° |
| 2026-05-07 16:20 | 1.47473 | 103.53215 | 9676 ft | 296 kts | 82° |
| 2026-05-07 16:20 | 1.47756 | 103.55261 | 9374 ft | 297 kts | 82° |
| 2026-05-07 16:20 | 1.48040 | 103.57295 | 9050 ft | 293 kts | 82° |
| 2026-05-07 16:20 | 1.48320 | 103.59296 | 8742 ft | 288 kts | 82° |
| 2026-05-07 16:21 | 1.48596 | 103.61268 | 8428 ft | 284 kts | 82° |
| 2026-05-07 16:21 | 1.48864 | 103.63179 | 8184 ft | 278 kts | 82° |
| 2026-05-07 16:21 | 1.49043 | 103.64458 | 8130 ft | 271 kts | 82° |
| 2026-05-07 16:21 | 1.49384 | 103.66887 | 8009 ft | 257 kts | 82° |
| 2026-05-07 16:22 | 1.49628 | 103.68633 | 7683 ft | 258 kts | 82° |
| 2026-05-07 16:22 | 1.49875 | 103.70396 | 7543 ft | 254 kts | 82° |
| 2026-05-07 16:22 | 1.50027 | 103.71573 | 7462 ft | 253 kts | 86° |
| 2026-05-07 16:22 | 1.50201 | 103.73878 | 7212 ft | 249 kts | 86° |
| 2026-05-07 16:23 | 1.50292 | 103.75041 | 7063 ft | 248 kts | 86° |
| 2026-05-07 16:23 | 1.50429 | 103.76751 | 6825 ft | 246 kts | 86° |
| 2026-05-07 16:23 | 1.50565 | 103.78446 | 6597 ft | 244 kts | 86° |
| 2026-05-07 16:23 | 1.50701 | 103.80135 | 6365 ft | 243 kts | 86° |
| 2026-05-07 16:24 | 1.50842 | 103.81812 | 6122 ft | 241 kts | 83° |
| 2026-05-07 16:24 | 1.51308 | 103.83411 | 5864 ft | 242 kts | 64° |
| 2026-05-07 16:24 | 1.52208 | 103.84832 | 5570 ft | 240 kts | 56° |
| 2026-05-07 16:24 | 1.53153 | 103.86241 | 5024 ft | 247 kts | 57° |
| 2026-05-07 16:25 | 1.54102 | 103.87699 | 4703 ft | 253 kts | 58° |
| 2026-05-07 16:25 | 1.55062 | 103.89184 | 4329 ft | 256 kts | 58° |
| 2026-05-07 16:25 | 1.55981 | 103.90711 | 3890 ft | 256 kts | 60° |
| 2026-05-07 16:25 | 1.56868 | 103.92209 | 3599 ft | 243 kts | 60° |
| 2026-05-07 16:26 | 1.57709 | 103.93626 | 3296 ft | 233 kts | 60° |
| 2026-05-07 16:26 | 1.58511 | 103.94977 | 3170 ft | 218 kts | 60° |
| 2026-05-07 16:26 | 1.59252 | 103.96221 | 3106 ft | 204 kts | 60° |
| 2026-05-07 16:26 | 1.59954 | 103.97400 | 2994 ft | 197 kts | 60° |
| 2026-05-07 16:27 | 1.60680 | 103.98622 | 3000 ft | 205 kts | 60° |
| 2026-05-07 16:27 | 1.61401 | 103.99835 | 3000 ft | 207 kts | 60° |
| 2026-05-07 16:27 | 1.62146 | 104.01090 | 2999 ft | 207 kts | 60° |
| 2026-05-07 16:27 | 1.62872 | 104.02308 | 2998 ft | 207 kts | 60° |
| 2026-05-07 16:28 | 1.63608 | 104.03544 | 2997 ft | 207 kts | 60° |
| 2026-05-07 16:28 | 1.64334 | 104.04783 | 2999 ft | 206 kts | 64° |
| 2026-05-07 16:28 | 1.64575 | 104.06166 | 2999 ft | 204 kts | 101° |
| 2026-05-07 16:28 | 1.63963 | 104.07410 | 2996 ft | 202 kts | 137° |
| 2026-05-07 16:29 | 1.62745 | 104.08044 | 2998 ft | 199 kts | 168° |
| 2026-05-07 16:29 | 1.61379 | 104.08284 | 2994 ft | 200 kts | 175° |
| 2026-05-07 16:29 | 1.59993 | 104.08209 | 2992 ft | 199 kts | 192° |
| 2026-05-07 16:29 | 1.58667 | 104.07806 | 2993 ft | 200 kts | 200° |
| 2026-05-07 16:30 | 1.57383 | 104.07281 | 2991 ft | 199 kts | 203° |
| 2026-05-07 16:30 | 1.56109 | 104.06737 | 2994 ft | 197 kts | 202° |
| 2026-05-07 16:30 | 1.54871 | 104.06214 | 2996 ft | 190 kts | 203° |
| 2026-05-07 16:30 | 1.53659 | 104.05699 | 2997 ft | 189 kts | 202° |
| 2026-05-07 16:31 | 1.52449 | 104.05186 | 2998 ft | 189 kts | 203° |
| 2026-05-07 16:31 | 1.51238 | 104.04672 | 2824 ft | 189 kts | 203° |
| 2026-05-07 16:31 | 1.50029 | 104.04159 | 2575 ft | 188 kts | 203° |
| 2026-05-07 16:31 | 1.48830 | 104.03650 | 2334 ft | 182 kts | 203° |
| 2026-05-07 16:32 | 1.47747 | 104.03190 | 2110 ft | 158 kts | 202° |
| 2026-05-07 16:32 | 1.46788 | 104.02783 | 1909 ft | 144 kts | 202° |
| 2026-05-07 16:32 | 1.45876 | 104.02393 | 1727 ft | 142 kts | 202° |
| 2026-05-07 16:32 | 1.44972 | 104.02010 | 1557 ft | 141 kts | 202° |
| 2026-05-07 16:33 | 1.44071 | 104.01631 | 1378 ft | 141 kts | 202° |
| 2026-05-07 16:33 | 1.43175 | 104.01243 | 1202 ft | 139 kts | 202° |
| 2026-05-07 16:33 | 1.42276 | 104.00870 | 1018 ft | 140 kts | 202° |
| 2026-05-07 16:33 | 1.41391 | 104.00480 | 847 ft | 140 kts | 202° |
| 2026-05-07 16:34 | 1.40496 | 104.00103 | 676 ft | 139 kts | 202° |
| 2026-05-07 16:34 | 1.39599 | 103.99726 | 500 ft | 139 kts | 202° |
| 2026-05-07 16:34 | 1.38714 | 103.99353 | 307 ft | 137 kts | 201° |
| 2026-05-07 16:34 | 1.37842 | 103.98988 | 113 ft | 137 kts | 202° |
| 2026-05-07 16:35 | 1.36996 | 103.98631 | 36 ft | 117 kts | 203° |
| 2026-05-07 16:35 | 1.36376 | 103.98371 | 36 ft | 79 kts | 202° |
| 2026-05-07 16:35 | 1.35983 | 103.98204 | 36 ft | 30 kts | 202° |
| 2026-05-07 16:35 | 1.35816 | 103.98135 | 35 ft | 20 kts | 200° |
| 2026-05-07 16:36 | 1.35701 | 103.98113 | 35 ft | 17 kts | 183° |
| 2026-05-07 16:36 | 1.35601 | 103.98114 | 35 ft | 11 kts | 174° |
| 2026-05-07 16:36 | 1.35536 | 103.98133 | 35 ft | 7 kts | 128° |
| 2026-05-07 16:36 | 1.35530 | 103.98195 | 35 ft | 11 kts | 59° |
| 2026-05-07 16:37 | 1.35602 | 103.98240 | 35 ft | 15 kts | 23° |
| 2026-05-07 16:37 | 1.35708 | 103.98282 | 35 ft | 17 kts | 22° |
| 2026-05-07 16:37 | 1.35820 | 103.98330 | 35 ft | 19 kts | 23° |
| 2026-05-07 16:37 | 1.35931 | 103.98377 | 35 ft | 13 kts | 23° |
| 2026-05-07 16:38 | 1.36023 | 103.98415 | 35 ft | 16 kts | 23° |
| 2026-05-07 16:38 | 1.36093 | 103.98445 | 35 ft | 8 kts | 30° |
| 2026-05-07 16:38 | 1.36113 | 103.98496 | 35 ft | 10 kts | 106° |
| 2026-05-07 16:38 | 1.36082 | 103.98564 | 35 ft | 11 kts | 127° |
| 2026-05-07 16:39 | 1.36024 | 103.98596 | 35 ft | 9 kts | 160° |
| 2026-05-07 16:39 | 1.35980 | 103.98612 | 35 ft | 7 kts | 160° |
| 2026-05-07 16:39 | 1.35940 | 103.98626 | 35 ft | 4 kts | 160° |
| 2026-05-07 16:39 | 1.35924 | 103.98632 | 35 ft | 1 kts | 160° |
| 2026-05-07 16:40 | 1.35923 | 103.98632 | 35 ft | 0 kts | 160° |